Time;durP1;ratioP1;P1;durP2;ratioP2;P2;SDS_P1;SDS_P2;PMS_P1;PMS_P2;Temp;Humidity;BMP_temperature;BMP_pressure;BME280_temperature;BME280_humidity;BME280_pressure;Samples;Min_cycle;Max_cycle;Signal;HPM_P1;HPM_P2
2020/12/29 00:01:47;;;;;;;14.10;9.30;;;1.90;99.90;;;;;;5089211;28;20171;-81
2020/12/29 00:04:17;;;;;;;9.90;7.17;;;2.00;99.90;;;;;;5089537;28;20167;-80
2020/12/29 00:06:45;;;;;;;10.03;7.10;;;1.80;99.90;;;;;;5089343;28;20401;-79
2020/12/29 00:09:11;;;;;;;9.60;7.40;;;1.70;99.90;;;;;;5089750;28;20420;-80
2020/12/29 00:11:37;;;;;;;9.30;6.57;;;1.60;99.90;;;;;;5089840;28;20394;-80
2020/12/29 00:14:03;;;;;;;10.47;7.80;;;1.70;99.90;;;;;;5071495;28;20394;-80
2020/12/29 00:16:29;;;;;;;16.40;8.77;;;1.50;99.90;;;;;;5090065;28;20459;-80
2020/12/29 00:18:55;;;;;;;7.70;6.90;;;1.40;99.90;;;;;;5089947;28;20407;-80
2020/12/29 00:21:21;;;;;;;10.90;9.47;;;1.30;99.90;;;;;;5072653;28;20433;-80
2020/12/29 00:23:50;;;;;;;8.30;6.50;;;1.30;99.90;;;;;;5088197;28;20190;-79
2020/12/29 00:26:18;;;;;;;8.73;7.97;;;1.40;99.90;;;;;;5065081;28;20390;-80
2020/12/29 00:28:44;;;;;;;5.60;4.77;;;1.50;99.90;;;;;;5071000;28;20401;-80
2020/12/29 00:31:11;;;;;;;12.40;7.17;;;1.40;99.90;;;;;;5070046;28;20837;-80
2020/12/29 00:33:37;;;;;;;12.63;8.73;;;1.50;99.90;;;;;;5090330;28;20394;-80
2020/12/29 00:36:05;;;;;;;7.90;7.13;;;1.60;99.90;;;;;;5092312;28;20397;-80
2020/12/29 00:38:31;;;;;;;11.03;7.77;;;1.50;99.90;;;;;;5082104;28;20413;-80
2020/12/29 00:40:57;;;;;;;13.73;10.93;;;1.50;99.90;;;;;;5064589;28;20388;-79
2020/12/29 00:43:23;;;;;;;10.67;7.27;;;1.60;99.90;;;;;;5082268;28;20163;-78
2020/12/29 00:45:49;;;;;;;11.97;8.03;;;1.70;99.90;;;;;;5081035;28;20404;-79
2020/12/29 00:48:14;;;;;;;9.67;6.20;;;1.80;99.90;;;;;;5091172;28;20168;-80
2020/12/29 00:50:40;;;;;;;13.33;7.20;;;1.60;99.90;;;;;;5083712;28;20196;-79
2020/12/29 00:53:06;;;;;;;15.63;10.10;;;1.80;99.90;;;;;;5064159;28;20183;-80
2020/12/29 00:55:32;;;;;;;16.08;11.60;;;1.70;99.90;;;;;;5084388;28;20427;-80
2020/12/29 00:57:58;;;;;;;13.83;9.10;;;1.90;99.90;;;;;;5080942;28;20534;-79
2020/12/29 01:00:24;;;;;;;9.93;7.80;;;2.10;99.90;;;;;;5065251;28;20179;-80
2020/12/29 01:02:50;;;;;;;10.60;7.77;;;2.10;99.90;;;;;;5063161;28;20398;-79
2020/12/29 01:05:16;;;;;;;12.30;7.40;;;2.00;99.90;;;;;;5059675;28;20398;-79
2020/12/29 01:07:42;;;;;;;12.80;8.27;;;2.20;99.90;;;;;;5047810;28;20375;-79
2020/12/29 01:10:08;;;;;;;9.00;5.90;;;2.10;99.90;;;;;;5085235;28;20446;-79
2020/12/29 01:12:34;;;;;;;9.17;7.00;;;2.00;99.90;;;;;;5080893;28;20418;-80
2020/12/29 01:15:01;;;;;;;7.70;6.97;;;2.00;99.90;;;;;;5060119;28;20451;-79
2020/12/29 01:17:27;;;;;;;9.73;8.40;;;2.00;99.90;;;;;;5077779;28;20425;-79
2020/12/29 01:19:53;;;;;;;8.90;7.00;;;2.00;99.90;;;;;;5047474;28;20763;-79
2020/12/29 01:22:19;;;;;;;7.50;6.53;;;2.00;99.90;;;;;;5067524;28;20393;-78
2020/12/29 01:24:45;;;;;;;6.63;5.60;;;1.90;99.90;;;;;;5084928;28;20515;-80
2020/12/29 01:27:10;;;;;;;7.50;6.80;;;1.90;99.90;;;;;;5082638;28;20159;-79
2020/12/29 01:29:36;;;;;;;10.97;7.73;;;2.00;99.90;;;;;;5084618;28;20283;-79
2020/12/29 01:32:02;;;;;;;10.07;8.53;;;2.00;99.90;;;;;;5085231;28;20152;-80
2020/12/29 01:34:28;;;;;;;8.70;7.20;;;2.20;99.90;;;;;;5066299;28;20616;-80
2020/12/29 01:36:54;;;;;;;9.37;6.47;;;2.10;99.90;;;;;;5083549;28;20767;-80
2020/12/29 01:39:19;;;;;;;6.17;5.40;;;2.20;99.90;;;;;;5067483;28;20156;-80
2020/12/29 01:41:45;;;;;;;9.00;7.50;;;2.10;99.90;;;;;;5085105;28;20179;-80
2020/12/29 01:44:16;;;;;;;6.33;5.30;;;2.10;99.90;;;;;;5085816;28;20159;-80
2020/12/29 01:46:44;;;;;;;9.00;7.53;;;2.10;99.90;;;;;;5085302;28;20241;-79
2020/12/29 01:49:11;;;;;;;8.13;7.23;;;2.00;99.90;;;;;;5066802;28;20544;-79
2020/12/29 01:51:38;;;;;;;8.10;7.27;;;2.00;99.90;;;;;;5084716;28;20472;-80
2020/12/29 01:54:05;;;;;;;7.97;6.70;;;2.00;99.90;;;;;;5085500;28;20390;-79
2020/12/29 01:56:37;;;;;;;8.70;6.73;;;2.10;99.90;;;;;;5084234;28;20440;-80
2020/12/29 01:59:09;;;;;;;13.57;6.27;;;2.10;99.90;;;;;;5069602;28;20393;-81
2020/12/29 02:01:37;;;;;;;6.50;5.60;;;2.20;99.90;;;;;;5086915;28;20422;-80
2020/12/29 02:04:03;;;;;;;6.80;6.20;;;2.20;99.90;;;;;;5088813;28;20372;-81
2020/12/29 02:06:29;;;;;;;7.20;5.53;;;2.30;99.90;;;;;;5093942;28;20424;-81
2020/12/29 02:08:55;;;;;;;5.90;5.30;;;2.40;99.90;;;;;;5090392;28;20206;-79
2020/12/29 02:11:22;;;;;;;7.40;6.73;;;2.30;99.90;;;;;;5089164;28;20418;-80
2020/12/29 02:13:48;;;;;;;6.27;5.53;;;2.30;99.90;;;;;;5085871;28;20838;-79
2020/12/29 02:16:14;;;;;;;5.93;5.43;;;2.30;99.90;;;;;;5086271;28;20364;-80
2020/12/29 02:18:41;;;;;;;8.53;6.23;;;2.40;99.90;;;;;;5085763;28;20160;-79
2020/12/29 02:21:08;;;;;;;5.77;5.17;;;2.30;99.90;;;;;;5085766;28;20207;-79
2020/12/29 02:23:33;;;;;;;6.93;5.77;;;2.50;99.90;;;;;;5085818;28;20394;-80
2020/12/29 02:25:59;;;;;;;7.10;6.23;;;2.50;99.90;;;;;;5086356;28;20408;-79
2020/12/29 02:28:25;;;;;;;11.83;6.33;;;2.40;99.90;;;;;;5085793;28;20265;-80
2020/12/29 02:30:51;;;;;;;5.57;5.07;;;2.40;99.90;;;;;;5068599;28;20191;-80
2020/12/29 02:33:16;;;;;;;9.27;5.40;;;2.40;99.90;;;;;;5086543;28;20168;-80
2020/12/29 02:35:42;;;;;;;7.73;5.63;;;2.30;99.90;;;;;;5086400;28;20190;-80
2020/12/29 02:38:08;;;;;;;4.73;4.27;;;2.30;99.90;;;;;;5087000;28;20163;-79
2020/12/29 02:40:34;;;;;;;6.73;6.03;;;2.30;99.90;;;;;;5086195;28;20178;-80
2020/12/29 02:43:02;;;;;;;6.17;3.90;;;2.40;99.90;;;;;;5087230;28;20167;-80
2020/12/29 02:45:28;;;;;;;5.43;4.40;;;2.30;99.90;;;;;;5087830;28;20418;-80
2020/12/29 02:47:54;;;;;;;3.97;3.40;;;2.50;99.90;;;;;;5086669;28;20776;-80
2020/12/29 02:50:20;;;;;;;5.63;5.13;;;2.50;99.90;;;;;;5087143;28;20226;-80
2020/12/29 02:52:46;;;;;;;4.93;4.57;;;2.60;99.90;;;;;;5088042;28;20435;-80
2020/12/29 02:55:12;;;;;;;4.33;3.50;;;2.60;99.90;;;;;;5088790;28;20386;-81
2020/12/29 02:57:37;;;;;;;4.83;4.50;;;2.70;99.90;;;;;;5088503;28;20159;-80
2020/12/29 03:00:05;;;;;;;4.87;4.00;;;2.70;99.90;;;;;;5085396;28;20160;-80
2020/12/29 03:02:31;;;;;;;4.33;4.00;;;2.70;99.90;;;;;;5083659;28;20251;-79
2020/12/29 03:05:01;;;;;;;6.40;4.00;;;2.70;99.90;;;;;;5083604;28;20712;-79
2020/12/29 03:07:27;;;;;;;4.03;3.40;;;2.70;99.90;;;;;;5083469;28;20159;-80
2020/12/29 03:09:53;;;;;;;4.27;3.80;;;2.70;99.90;;;;;;5083156;28;20429;-79
2020/12/29 03:12:19;;;;;;;4.77;3.77;;;2.80;99.90;;;;;;5084860;28;20424;-79
2020/12/29 03:14:45;;;;;;;4.67;3.93;;;2.70;99.90;;;;;;5086993;28;20167;-78
2020/12/29 03:17:10;;;;;;;4.90;3.90;;;2.80;99.90;;;;;;5087357;28;20183;-80
2020/12/29 03:19:36;;;;;;;12.53;4.87;;;2.80;99.90;;;;;;5086980;28;20271;-80
2020/12/29 03:22:02;;;;;;;4.30;3.90;;;2.70;99.90;;;;;;5087903;28;20156;-80
2020/12/29 03:24:28;;;;;;;4.17;3.77;;;2.70;99.90;;;;;;5087624;28;20247;-80
2020/12/29 03:26:54;;;;;;;4.60;4.03;;;2.60;99.90;;;;;;5087632;28;20393;-80
2020/12/29 03:29:19;;;;;;;5.30;4.00;;;2.50;99.90;;;;;;5088089;28;20187;-79
2020/12/29 03:31:45;;;;;;;5.43;4.10;;;2.60;99.90;;;;;;5087615;28;20174;-80
2020/12/29 03:34:21;;;;;;;5.63;4.43;;;2.50;99.90;;;;;;5087733;28;20209;-79
2020/12/29 03:36:47;;;;;;;4.57;3.70;;;2.60;99.90;;;;;;5087345;28;20158;-80
2020/12/29 03:39:12;;;;;;;9.00;4.50;;;2.60;99.90;;;;;;5086564;28;20394;-80
2020/12/29 03:41:38;;;;;;;4.70;3.47;;;2.50;99.90;;;;;;5086428;28;20160;-78
2020/12/29 03:44:04;;;;;;;4.90;4.40;;;2.40;99.90;;;;;;5086488;28;20175;-79
2020/12/29 03:46:30;;;;;;;3.43;3.00;;;2.40;99.90;;;;;;5091975;28;20293;-80
2020/12/29 03:48:56;;;;;;;3.73;3.30;;;2.30;99.90;;;;;;5100766;28;20395;-80
2020/12/29 03:51:22;;;;;;;4.30;3.30;;;2.40;99.90;;;;;;5092116;28;20388;-80
2020/12/29 03:53:47;;;;;;;5.20;3.70;;;2.50;99.90;;;;;;5072246;28;20160;-80
2020/12/29 03:56:13;;;;;;;4.60;4.07;;;2.50;99.90;;;;;;5090230;28;20168;-80
2020/12/29 03:58:39;;;;;;;6.50;4.03;;;2.50;99.90;;;;;;5089728;28;20189;-80
2020/12/29 04:01:05;;;;;;;5.43;3.30;;;2.60;99.90;;;;;;5088968;28;20269;-80
2020/12/29 04:03:30;;;;;;;4.00;3.60;;;2.60;99.90;;;;;;5089365;28;20190;-80
2020/12/29 04:05:56;;;;;;;9.23;4.23;;;2.50;99.90;;;;;;5088610;28;20160;-80
2020/12/29 04:08:22;;;;;;;4.37;3.43;;;2.50;99.90;;;;;;5088972;28;20163;-79
2020/12/29 04:10:48;;;;;;;4.27;3.33;;;2.40;99.90;;;;;;5088174;28;20195;-80
2020/12/29 04:13:13;;;;;;;5.87;3.63;;;2.40;99.90;;;;;;5070789;28;20159;-80
2020/12/29 04:15:39;;;;;;;6.40;4.03;;;2.30;99.90;;;;;;5088367;28;20175;-80
2020/12/29 04:18:05;;;;;;;12.93;4.43;;;2.50;99.90;;;;;;5087726;28;20156;-80
2020/12/29 04:20:31;;;;;;;4.70;3.93;;;2.60;99.90;;;;;;5088336;28;20671;-79
2020/12/29 04:22:56;;;;;;;3.70;3.27;;;2.50;99.90;;;;;;5087849;28;20209;-80
2020/12/29 04:25:22;;;;;;;4.47;3.77;;;2.70;99.90;;;;;;5088063;28;20163;-80
2020/12/29 04:27:48;;;;;;;6.27;3.90;;;2.50;99.90;;;;;;5086866;28;20201;-80
2020/12/29 04:30:13;;;;;;;3.30;3.00;;;2.50;99.90;;;;;;5088055;28;20259;-80
2020/12/29 04:32:40;;;;;;;4.90;3.83;;;2.60;99.90;;;;;;5090778;28;20213;-80
2020/12/29 04:35:07;;;;;;;4.83;4.40;;;2.70;99.90;;;;;;5091641;28;20164;-80
2020/12/29 04:37:33;;;;;;;9.67;4.60;;;2.70;99.90;;;;;;5091410;28;20404;-78
2020/12/29 04:39:59;;;;;;;3.23;2.90;;;2.60;99.90;;;;;;5073193;28;20489;-80
2020/12/29 04:42:25;;;;;;;5.80;3.70;;;2.70;99.90;;;;;;5091670;28;20390;-81
2020/12/29 04:44:52;;;;;;;4.03;3.63;;;2.70;99.90;;;;;;5092248;28;20580;-80
2020/12/29 04:47:18;;;;;;;8.07;3.50;;;2.70;99.90;;;;;;5089089;28;20294;-80
2020/12/29 04:49:45;;;;;;;3.93;3.57;;;2.70;99.90;;;;;;5088494;28;20456;-80
2020/12/29 04:52:11;;;;;;;3.47;2.77;;;2.70;99.90;;;;;;5087873;28;20447;-80
2020/12/29 04:54:40;;;;;;;4.23;3.20;;;2.70;99.90;;;;;;5088767;28;20738;-80
2020/12/29 04:57:08;;;;;;;3.80;3.50;;;2.70;99.90;;;;;;5088674;28;20394;-80
2020/12/29 04:59:34;;;;;;;5.50;3.77;;;2.80;99.90;;;;;;5088621;28;20364;-80
2020/12/29 05:02:01;;;;;;;2.40;2.20;;;2.90;99.90;;;;;;5087469;28;20394;-80
2020/12/29 05:04:28;;;;;;;3.77;3.30;;;2.90;99.90;;;;;;5089945;28;20377;-80
2020/12/29 05:06:55;;;;;;;3.00;2.80;;;2.80;99.90;;;;;;5087809;28;20441;-80
2020/12/29 05:09:23;;;;;;;5.00;3.30;;;2.80;99.90;;;;;;5087281;28;20449;-80
2020/12/29 05:11:49;;;;;;;3.13;2.93;;;2.90;99.90;;;;;;5088416;28;20473;-80
2020/12/29 05:14:15;;;;;;;4.47;4.07;;;2.90;99.90;;;;;;5070112;28;20368;-80
2020/12/29 05:16:41;;;;;;;3.00;2.70;;;2.80;99.90;;;;;;5087857;28;20394;-80
2020/12/29 05:19:12;;;;;;;3.17;2.97;;;2.80;99.90;;;;;;5087640;28;20171;-79
2020/12/29 05:21:40;;;;;;;7.27;3.40;;;2.80;99.90;;;;;;5069515;28;20412;-80
2020/12/29 05:24:18;;;;;;;3.10;2.87;;;2.80;99.90;;;;;;5085898;28;20389;-80
2020/12/29 05:26:45;;;;;;;3.60;2.70;;;2.80;99.90;;;;;;5085227;28;20858;-80
2020/12/29 05:29:12;;;;;;;3.40;2.83;;;2.80;99.90;;;;;;5086982;28;20506;-80
2020/12/29 05:31:40;;;;;;;3.17;2.87;;;2.60;99.90;;;;;;5068658;28;20413;-80
2020/12/29 05:34:06;;;;;;;5.57;3.90;;;2.60;99.90;;;;;;5087182;28;20393;-80
2020/12/29 05:36:37;;;;;;;3.40;3.20;;;2.60;99.90;;;;;;5068263;28;20369;-79
2020/12/29 05:39:08;;;;;;;4.53;3.50;;;2.60;99.90;;;;;;5069351;28;20407;-80
2020/12/29 05:41:39;;;;;;;3.17;2.90;;;2.70;99.90;;;;;;5087157;28;20521;-80
2020/12/29 05:44:06;;;;;;;3.40;3.10;;;2.70;99.90;;;;;;5087079;28;20399;-80
2020/12/29 05:46:32;;;;;;;3.53;3.23;;;2.70;99.90;;;;;;5085815;28;20781;-80
2020/12/29 05:48:59;;;;;;;3.37;3.07;;;2.70;99.90;;;;;;5087401;28;20937;-80
2020/12/29 05:51:26;;;;;;;3.30;3.00;;;2.80;99.90;;;;;;5087919;28;20830;-80
2020/12/29 05:53:59;;;;;;;3.00;2.80;;;2.70;99.90;;;;;;5088584;28;20455;-80
2020/12/29 05:56:28;;;;;;;3.27;2.07;;;2.60;99.90;;;;;;5088648;28;20887;-80
2020/12/29 05:58:55;;;;;;;3.80;2.90;;;2.50;99.90;;;;;;5086379;28;20398;-80
2020/12/29 06:01:20;;;;;;;2.73;2.53;;;2.40;99.90;;;;;;5086490;28;20416;-79
2020/12/29 06:03:50;;;;;;;3.87;3.57;;;2.50;99.90;;;;;;5085753;28;20397;-80
2020/12/29 06:06:16;;;;;;;3.13;2.93;;;2.50;99.90;;;;;;5085186;28;20155;-79
2020/12/29 06:08:46;;;;;;;3.27;2.40;;;2.50;99.90;;;;;;5086553;28;20411;-79
2020/12/29 06:11:13;;;;;;;2.63;2.43;;;2.50;99.90;;;;;;5086483;28;20745;-80
2020/12/29 06:13:46;;;;;;;2.57;2.20;;;2.60;99.90;;;;;;5086243;28;20406;-80
2020/12/29 06:16:16;;;;;;;2.00;1.90;;;2.70;99.90;;;;;;5085294;28;20386;-80
2020/12/29 06:18:45;;;;;;;2.33;2.13;;;2.70;99.90;;;;;;5086588;28;20389;-80
2020/12/29 06:21:14;;;;;;;2.47;2.27;;;3.00;99.90;;;;;;5086727;28;20448;-79
2020/12/29 06:23:46;;;;;;;2.87;2.67;;;3.00;99.90;;;;;;5087721;28;20482;-80
2020/12/29 06:26:18;;;;;;;1.80;1.70;;;3.10;99.90;;;;;;5088426;28;20392;-80
2020/12/29 06:28:49;;;;;;;1.67;1.57;;;3.10;99.90;;;;;;5068878;28;20905;-80
2020/12/29 06:31:26;;;;;;;1.83;1.73;;;3.20;99.90;;;;;;5087536;28;20445;-80
2020/12/29 06:33:54;;;;;;;1.80;1.70;;;3.30;99.90;;;;;;5085716;28;20413;-79
2020/12/29 06:36:21;;;;;;;2.00;1.87;;;3.30;99.90;;;;;;5085192;28;20440;-80
2020/12/29 06:38:49;;;;;;;3.40;2.50;;;3.30;99.90;;;;;;5088034;28;20414;-81
2020/12/29 06:41:19;;;;;;;3.30;2.10;;;3.40;99.90;;;;;;5087213;28;20747;-81
2020/12/29 06:43:46;;;;;;;2.10;2.00;;;3.40;99.90;;;;;;5087544;28;20429;-80
2020/12/29 06:46:13;;;;;;;4.93;2.63;;;3.30;99.90;;;;;;5087833;28;20751;-80
2020/12/29 06:48:40;;;;;;;2.17;2.00;;;3.20;99.90;;;;;;5091494;28;20573;-80
2020/12/29 06:51:09;;;;;;;3.17;2.87;;;3.20;99.90;;;;;;5091523;28;20464;-80
2020/12/29 06:53:35;;;;;;;2.53;2.33;;;3.10;99.90;;;;;;5090051;28;20421;-80
2020/12/29 06:56:03;;;;;;;2.40;2.20;;;3.20;99.90;;;;;;5092941;28;20522;-80
2020/12/29 06:58:31;;;;;;;3.87;2.47;;;3.30;99.90;;;;;;5100626;28;20412;-80
2020/12/29 07:01:27;;;;;;;2.83;1.90;;;3.30;99.90;;;;;;5093970;28;20384;-80
2020/12/29 07:04:04;;;;;;;1.57;1.47;;;3.30;99.90;;;;;;5074576;28;20458;-80
2020/12/29 07:06:32;;;;;;;2.43;1.73;;;3.40;99.90;;;;;;5091287;28;20389;-80
2020/12/29 07:09:24;;;;;;;1.73;1.63;;;3.50;99.90;;;;;;5090975;28;20376;-80
2020/12/29 07:12:04;;;;;;;3.00;1.47;;;3.50;99.90;;;;;;5090848;28;20508;-80
2020/12/29 07:14:32;;;;;;;1.80;1.60;;;3.50;99.90;;;;;;5091181;28;20420;-80
2020/12/29 07:16:59;;;;;;;2.40;2.20;;;3.60;99.90;;;;;;5091114;28;20814;-80
2020/12/29 07:19:27;;;;;;;1.73;1.63;;;3.50;99.90;;;;;;5090823;28;20400;-80
2020/12/29 07:21:53;;;;;;;1.50;1.40;;;3.70;99.90;;;;;;5090999;28;20396;-80
2020/12/29 07:24:20;;;;;;;1.77;1.67;;;3.60;99.90;;;;;;5091020;28;20421;-80
2020/12/29 07:26:47;;;;;;;1.93;1.83;;;3.60;99.90;;;;;;5091637;28;20416;-80
2020/12/29 07:29:13;;;;;;;1.87;1.77;;;3.50;99.90;;;;;;5091238;28;20473;-80
2020/12/29 07:31:41;;;;;;;5.30;2.30;;;3.60;99.90;;;;;;5092432;28;20409;-80
2020/12/29 07:34:14;;;;;;;3.43;1.60;;;3.50;99.90;;;;;;5092261;28;20163;-80
2020/12/29 07:36:48;;;;;;;1.43;1.33;;;3.60;99.90;;;;;;5093523;28;20422;-80
2020/12/29 07:39:16;;;;;;;1.57;1.47;;;3.60;99.90;;;;;;5094167;28;20416;-80
2020/12/29 07:41:43;;;;;;;1.90;1.60;;;3.70;99.90;;;;;;5100431;28;20428;-80
2020/12/29 07:44:09;;;;;;;1.63;1.53;;;3.60;99.90;;;;;;5100427;28;20417;-79
2020/12/29 07:46:35;;;;;;;2.13;1.30;;;3.70;99.90;;;;;;5080810;28;20469;-79
2020/12/29 07:49:01;;;;;;;1.50;1.40;;;3.70;99.90;;;;;;5091825;28;20485;-80
2020/12/29 07:51:27;;;;;;;1.93;1.83;;;3.70;99.90;;;;;;5091148;28;20445;-80
2020/12/29 07:53:53;;;;;;;1.50;1.40;;;3.70;99.90;;;;;;5091373;28;20417;-80
2020/12/29 07:56:20;;;;;;;2.00;1.90;;;3.70;99.90;;;;;;5089425;28;20388;-80
2020/12/29 07:58:46;;;;;;;2.17;1.50;;;3.80;99.90;;;;;;5088881;28;20396;-80
2020/12/29 08:01:13;;;;;;;1.53;1.40;;;3.80;99.90;;;;;;5089087;28;20399;-80
2020/12/29 08:03:39;;;;;;;4.57;1.90;;;3.70;99.90;;;;;;5088720;28;20254;-80
2020/12/29 08:06:15;;;;;;;1.30;1.20;;;3.70;99.90;;;;;;5088988;28;20398;-80
2020/12/29 08:08:41;;;;;;;1.73;1.60;;;3.70;99.90;;;;;;5096994;28;20425;-80
2020/12/29 08:11:08;;;;;;;2.60;1.77;;;3.70;99.90;;;;;;5099998;28;20529;-80
2020/12/29 08:13:34;;;;;;;4.27;1.43;;;3.70;99.90;;;;;;5063081;28;20381;-80
2020/12/29 08:16:01;;;;;;;1.27;1.17;;;3.80;99.90;;;;;;5093814;28;20476;-80
2020/12/29 08:18:26;;;;;;;2.30;1.50;;;3.80;99.90;;;;;;5088481;28;20178;-80
2020/12/29 08:20:57;;;;;;;1.70;1.60;;;3.80;99.90;;;;;;5086235;28;20454;-79
2020/12/29 08:23:24;;;;;;;2.20;1.40;;;3.60;99.90;;;;;;5085741;28;20171;-80
2020/12/29 08:25:55;;;;;;;1.77;1.67;;;3.60;99.90;;;;;;5086847;28;20422;-79
2020/12/29 08:28:24;;;;;;;1.80;1.70;;;3.60;99.90;;;;;;5087220;28;20417;-80
2020/12/29 08:30:50;;;;;;;3.17;1.30;;;3.80;99.90;;;;;;5087213;28;20543;-79
2020/12/29 08:33:19;;;;;;;1.77;1.67;;;3.70;99.90;;;;;;5085737;28;20471;-79
2020/12/29 08:35:48;;;;;;;1.73;1.33;;;3.60;99.90;;;;;;5083084;28;20425;-79
2020/12/29 08:38:41;;;;;;;4.03;1.17;;;3.70;99.90;;;;;;5066991;28;20422;-80
2020/12/29 08:41:22;;;;;;;2.53;1.70;;;3.60;99.90;;;;;;5074068;28;20420;-79
2020/12/29 08:43:50;;;;;;;1.60;1.50;;;3.60;99.90;;;;;;5072411;28;20429;-80
2020/12/29 08:46:19;;;;;;;2.90;1.37;;;3.60;99.90;;;;;;5085262;28;20892;-79
2020/12/29 08:49:00;;;;;;;1.50;1.40;;;3.60;99.90;;;;;;5068296;28;20416;-79
2020/12/29 08:51:29;;;;;;;1.60;1.50;;;3.70;99.90;;;;;;5086785;28;20405;-80
2020/12/29 08:54:10;;;;;;;3.70;1.77;;;3.30;99.90;;;;;;5050572;28;20427;-80
2020/12/29 08:56:36;;;;;;;6.10;1.40;;;3.40;99.90;;;;;;5086504;28;20377;-79
2020/12/29 08:59:11;;;;;;;1.30;1.20;;;3.50;99.90;;;;;;5086656;28;20386;-79
2020/12/29 09:01:40;;;;;;;1.50;1.33;;;3.60;99.90;;;;;;5085904;28;20402;-79
2020/12/29 09:04:23;;;;;;;2.70;1.40;;;3.60;99.90;;;;;;5082827;28;20932;-79
2020/12/29 09:07:01;;;;;;;1.80;1.50;;;3.40;99.90;;;;;;5068092;28;20398;-79
2020/12/29 09:09:28;;;;;;;1.67;1.20;;;3.50;99.90;;;;;;5084498;28;20459;-77
2020/12/29 09:12:12;;;;;;;1.30;1.20;;;3.50;99.90;;;;;;5084059;28;20433;-79
2020/12/29 09:14:51;;;;;;;1.73;1.63;;;3.50;99.90;;;;;;5085014;28;20417;-79
2020/12/29 09:17:17;;;;;;;1.30;1.20;;;3.50;99.90;;;;;;5085419;28;20413;-79
2020/12/29 09:20:03;;;;;;;1.33;1.23;;;3.40;99.90;;;;;;5064432;28;20442;-80
2020/12/29 09:22:29;;;;;;;1.20;1.10;;;3.50;99.90;;;;;;5061564;28;20432;-79
2020/12/29 09:24:54;;;;;;;1.70;1.20;;;3.40;99.90;;;;;;5074009;28;20457;-80
2020/12/29 09:27:29;;;;;;;1.83;1.73;;;3.50;99.90;;;;;;5087620;28;20242;-80
2020/12/29 09:29:56;;;;;;;1.30;1.20;;;3.60;99.90;;;;;;5086823;28;20216;-79
2020/12/29 09:32:23;;;;;;;1.20;1.10;;;3.60;99.90;;;;;;5086328;28;20397;-79
2020/12/29 09:34:50;;;;;;;1.20;1.10;;;3.50;99.90;;;;;;5086694;28;20382;-79
2020/12/29 09:37:17;;;;;;;4.07;1.33;;;3.40;99.90;;;;;;5062731;28;20406;-79
2020/12/29 09:39:43;;;;;;;1.10;1.00;;;3.50;99.90;;;;;;5060904;28;20414;-79
2020/12/29 09:42:10;;;;;;;1.30;1.20;;;3.40;99.90;;;;;;5067434;28;20406;-78
2020/12/29 09:44:36;;;;;;;1.47;1.37;;;3.50;99.90;;;;;;5084922;28;20452;-78
2020/12/29 09:47:02;;;;;;;1.53;1.43;;;3.40;99.90;;;;;;5085440;28;20451;-79
2020/12/29 09:49:28;;;;;;;1.00;1.00;;;3.40;99.90;;;;;;5083556;28;20503;-79
2020/12/29 09:51:54;;;;;;;1.30;1.20;;;3.40;99.90;;;;;;5085660;28;20396;-79
2020/12/29 09:54:20;;;;;;;1.60;1.50;;;3.30;99.90;;;;;;5043727;28;20199;-79
2020/12/29 09:56:46;;;;;;;1.80;1.70;;;3.20;99.90;;;;;;5043137;28;20457;-79
2020/12/29 09:59:12;;;;;;;1.47;1.27;;;3.40;99.90;;;;;;5019622;28;20436;-79
2020/12/29 10:01:37;;;;;;;1.40;1.30;;;3.60;99.90;;;;;;5043325;28;20435;-79
2020/12/29 10:04:03;;;;;;;1.20;1.10;;;3.60;99.90;;;;;;5043839;28;20254;-78
2020/12/29 10:06:30;;;;;;;1.80;1.70;;;3.40;99.90;;;;;;5051455;28;20191;-79
2020/12/29 10:08:56;;;;;;;2.53;1.40;;;3.50;99.90;;;;;;5050794;28;20243;-80
2020/12/29 10:11:24;;;;;;;1.50;1.40;;;3.70;99.90;;;;;;5044527;28;20378;-78
2020/12/29 10:13:50;;;;;;;1.77;1.40;;;3.60;99.90;;;;;;5043488;28;20180;-79
2020/12/29 10:16:16;;;;;;;2.13;1.67;;;3.50;99.90;;;;;;5042875;28;20454;-79
2020/12/29 10:18:41;;;;;;;1.30;1.20;;;3.60;99.90;;;;;;5042775;28;20165;-80
2020/12/29 10:21:07;;;;;;;1.40;1.30;;;3.60;99.90;;;;;;5023517;28;20216;-79
2020/12/29 10:23:35;;;;;;;1.40;1.30;;;3.40;99.90;;;;;;5043583;28;20668;-79
2020/12/29 10:26:01;;;;;;;1.23;1.07;;;3.70;99.90;;;;;;5077097;28;20425;-79
2020/12/29 10:28:30;;;;;;;1.20;1.10;;;3.60;99.90;;;;;;5085740;28;20225;-79
2020/12/29 10:30:57;;;;;;;1.37;1.27;;;3.50;99.90;;;;;;5082437;28;20442;-79
2020/12/29 10:33:23;;;;;;;1.43;1.33;;;3.40;99.90;;;;;;5049573;28;20760;-79
2020/12/29 10:35:49;;;;;;;1.40;1.30;;;3.40;99.90;;;;;;5084337;28;20409;-79
2020/12/29 10:38:14;;;;;;;1.10;1.00;;;3.50;99.90;;;;;;5084363;28;20662;-80
2020/12/29 10:40:40;;;;;;;1.43;1.33;;;3.60;99.90;;;;;;5085630;28;20526;-79
2020/12/29 10:43:06;;;;;;;1.70;1.60;;;3.50;99.90;;;;;;5082854;28;20172;-79
2020/12/29 10:45:31;;;;;;;1.70;1.60;;;3.60;99.90;;;;;;5085660;28;20180;-80
2020/12/29 10:48:17;;;;;;;1.40;1.30;;;3.70;99.90;;;;;;5087687;28;20227;-79
2020/12/29 10:50:43;;;;;;;1.90;1.80;;;3.70;99.90;;;;;;5030316;28;20220;-79
2020/12/29 10:53:09;;;;;;;1.47;1.33;;;3.80;99.90;;;;;;5046936;28;20450;-78
2020/12/29 10:55:34;;;;;;;1.10;1.00;;;3.70;99.90;;;;;;5025838;28;20272;-79
2020/12/29 10:58:00;;;;;;;2.20;1.47;;;3.60;99.90;;;;;;5041713;28;20161;-79
2020/12/29 11:00:26;;;;;;;1.60;1.50;;;3.60;99.90;;;;;;5022645;28;20200;-79
2020/12/29 11:02:52;;;;;;;1.73;1.63;;;3.50;99.90;;;;;;5039217;28;20173;-77
2020/12/29 11:05:17;;;;;;;1.57;1.47;;;3.60;99.90;;;;;;5017845;28;20207;-80
2020/12/29 11:07:43;;;;;;;2.37;1.83;;;3.40;99.90;;;;;;5027280;28;20206;-79
2020/12/29 11:10:09;;;;;;;1.60;1.50;;;3.30;99.90;;;;;;5029148;28;20224;-79
2020/12/29 11:12:35;;;;;;;1.70;1.60;;;3.60;99.90;;;;;;5031671;28;20177;-78
2020/12/29 11:15:00;;;;;;;1.63;1.53;;;3.50;99.90;;;;;;5046040;28;20173;-79
2020/12/29 11:17:26;;;;;;;1.40;1.30;;;3.50;99.90;;;;;;5043892;28;20277;-79
2020/12/29 11:19:52;;;;;;;1.57;1.47;;;3.60;99.90;;;;;;5041260;28;20231;-79
2020/12/29 11:22:18;;;;;;;1.50;1.40;;;3.60;99.90;;;;;;5072392;28;20187;-78
2020/12/29 11:24:44;;;;;;;1.57;1.40;;;3.60;99.90;;;;;;5061502;28;20512;-78
2020/12/29 11:27:10;;;;;;;1.53;1.43;;;3.50;99.90;;;;;;5035679;28;20187;-78
2020/12/29 11:29:36;;;;;;;1.60;1.50;;;3.60;99.90;;;;;;5069663;28;20457;-78
2020/12/29 11:32:02;;;;;;;2.13;1.30;;;3.70;99.90;;;;;;5082387;28;20520;-79
2020/12/29 11:34:28;;;;;;;2.63;1.67;;;3.80;99.90;;;;;;5083104;28;20274;-79
2020/12/29 11:36:57;;;;;;;1.50;1.40;;;3.90;99.90;;;;;;5067488;28;20483;-78
2020/12/29 11:39:23;;;;;;;1.73;1.63;;;3.90;99.90;;;;;;5087558;28;20413;-79
2020/12/29 11:41:51;;;;;;;2.70;1.80;;;3.80;99.90;;;;;;5086295;28;20421;-79
2020/12/29 11:44:17;;;;;;;1.70;1.60;;;3.70;99.90;;;;;;5083448;28;20506;-79
2020/12/29 11:46:42;;;;;;;2.03;1.57;;;3.60;99.90;;;;;;5052245;28;20461;-77
2020/12/29 11:49:08;;;;;;;2.73;2.53;;;3.70;99.90;;;;;;5085187;28;20404;-80
2020/12/29 11:51:37;;;;;;;1.70;1.60;;;3.70;99.90;;;;;;5085121;28;20235;-80
2020/12/29 11:54:02;;;;;;;2.00;1.90;;;3.70;99.90;;;;;;5066959;28;20218;-80
2020/12/29 11:56:28;;;;;;;1.67;1.57;;;3.80;99.90;;;;;;5081209;28;20756;-79
2020/12/29 11:58:56;;;;;;;1.40;1.30;;;3.90;99.90;;;;;;5025403;28;20168;-80
2020/12/29 12:01:22;;;;;;;1.40;1.30;;;3.80;99.90;;;;;;5060189;28;20403;-79
2020/12/29 12:03:50;;;;;;;1.50;1.40;;;3.90;99.90;;;;;;5042050;28;20418;-78
2020/12/29 12:06:16;;;;;;;1.80;1.70;;;3.90;99.90;;;;;;5072141;28;20172;-79
2020/12/29 12:08:42;;;;;;;1.80;1.70;;;3.90;99.90;;;;;;5045855;28;20390;-79
2020/12/29 12:11:11;;;;;;;1.57;1.47;;;3.90;99.90;;;;;;5063598;28;20525;-79
2020/12/29 12:13:37;;;;;;;1.30;1.20;;;3.90;99.90;;;;;;5084450;28;20502;-79
2020/12/29 12:16:02;;;;;;;1.63;1.53;;;3.90;99.90;;;;;;5090919;28;20427;-79
2020/12/29 12:18:28;;;;;;;1.53;1.43;;;4.00;99.90;;;;;;5068136;28;20160;-79
2020/12/29 12:20:54;;;;;;;1.30;1.20;;;4.00;99.90;;;;;;5064127;28;20195;-79
2020/12/29 12:23:22;;;;;;;1.40;1.30;;;3.90;99.90;;;;;;5082225;28;20398;-79
2020/12/29 12:25:48;;;;;;;1.30;1.20;;;4.10;99.90;;;;;;5082332;28;20163;-79
2020/12/29 12:28:18;;;;;;;1.47;1.37;;;4.00;99.90;;;;;;5088850;28;20394;-80
2020/12/29 12:30:44;;;;;;;1.63;1.53;;;3.90;99.90;;;;;;5070591;28;20198;-79
2020/12/29 12:33:10;;;;;;;1.80;1.70;;;4.10;99.90;;;;;;5087574;28;20394;-79
2020/12/29 12:35:36;;;;;;;2.27;2.07;;;4.30;99.90;;;;;;5068026;28;20167;-77
2020/12/29 12:38:11;;;;;;;1.43;1.33;;;4.40;99.90;;;;;;5061418;28;20167;-79
2020/12/29 12:40:37;;;;;;;1.57;1.47;;;4.20;99.90;;;;;;5062434;28;20167;-78
2020/12/29 12:43:04;;;;;;;1.60;1.50;;;4.20;99.90;;;;;;5078047;28;20402;-81
2020/12/29 12:45:35;;;;;;;1.70;1.50;;;4.40;99.90;;;;;;5063666;28;20385;-82
2020/12/29 12:48:01;;;;;;;1.30;1.20;;;4.30;99.90;;;;;;5077183;28;20454;-81
2020/12/29 12:50:27;;;;;;;1.33;1.23;;;4.30;99.90;;;;;;5075315;28;20199;-83
2020/12/29 12:52:53;;;;;;;2.00;1.20;;;4.10;99.90;;;;;;5074628;28;20175;-81
2020/12/29 12:55:19;;;;;;;1.50;1.40;;;4.10;99.90;;;;;;5060041;28;20174;-80
2020/12/29 12:57:47;;;;;;;1.30;1.20;;;4.10;99.90;;;;;;5076600;28;20524;-80